Time;durP1;ratioP1;P1;durP2;ratioP2;P2;SDS_P1;SDS_P2;PMS_P1;PMS_P2;Temp;Humidity;BMP_temperature;BMP_pressure;BME280_temperature;BME280_humidity;BME280_pressure;Samples;Min_cycle;Max_cycle;Signal;HPM_P1;HPM_P2
2022/11/26 05:02:35;;;;;;;17.37;9.53;;;7.30;99.90;;;;;;4994632;23;20488;-63
2022/11/26 05:05:02;;;;;;;18.60;10.47;;;7.30;99.90;;;;;;4994393;28;20477;-63
2022/11/26 05:07:29;;;;;;;17.00;8.63;;;7.30;99.90;;;;;;4994571;28;20457;-63
2022/11/26 05:09:55;;;;;;;13.30;8.47;;;7.30;99.90;;;;;;4994767;28;20858;-63
2022/11/26 05:12:22;;;;;;;16.97;9.20;;;7.30;99.90;;;;;;4994634;28;20484;-63
2022/11/26 05:14:49;;;;;;;12.00;9.27;;;7.30;99.90;;;;;;4994117;28;20842;-63
2022/11/26 05:17:15;;;;;;;12.53;7.57;;;7.20;99.90;;;;;;4994496;28;20504;-65
2022/11/26 05:19:43;;;;;;;17.40;9.47;;;7.20;99.90;;;;;;4994381;28;20457;-65
2022/11/26 05:22:10;;;;;;;19.87;9.50;;;7.10;99.90;;;;;;4994434;28;20482;-65
2022/11/26 05:24:37;;;;;;;19.60;10.10;;;7.10;99.90;;;;;;4994339;28;20484;-65
2022/11/26 05:27:04;;;;;;;17.13;8.97;;;7.00;99.90;;;;;;4994404;28;20870;-65
2022/11/26 05:29:32;;;;;;;16.20;8.80;;;7.00;99.90;;;;;;4994266;28;20453;-65
2022/11/26 05:31:59;;;;;;;17.43;10.03;;;7.00;99.90;;;;;;4994370;28;20532;-65
2022/11/26 05:34:25;;;;;;;19.57;9.40;;;6.90;99.90;;;;;;4995971;28;20511;-65
2022/11/26 05:36:53;;;;;;;13.70;9.13;;;6.90;99.90;;;;;;4998711;28;20489;-65
2022/11/26 05:39:20;;;;;;;20.40;9.73;;;6.80;99.90;;;;;;4998360;28;20458;-65
2022/11/26 05:41:47;;;;;;;15.17;9.23;;;6.80;99.90;;;;;;4997912;28;20593;-65
2022/11/26 05:44:14;;;;;;;11.80;8.67;;;6.80;99.90;;;;;;4998110;28;20792;-65
2022/11/26 05:46:42;;;;;;;16.80;11.77;;;6.70;99.90;;;;;;4997811;28;20449;-65
2022/11/26 05:49:09;;;;;;;23.37;11.30;;;6.70;99.90;;;;;;4998240;28;20884;-65
2022/11/26 05:51:36;;;;;;;17.43;10.40;;;6.60;99.90;;;;;;4998033;28;20477;-65
2022/11/26 05:54:06;;;;;;;23.00;11.87;;;6.60;99.90;;;;;;4998091;28;20458;-65
2022/11/26 05:56:33;;;;;;;16.50;11.90;;;6.60;99.90;;;;;;4997934;28;20454;-65
2022/11/26 05:58:59;;;;;;;20.60;12.00;;;6.60;99.90;;;;;;4997646;28;20945;-65
2022/11/26 06:01:26;;;;;;;21.60;12.93;;;6.60;99.90;;;;;;4997530;28;20504;-65
2022/11/26 06:03:53;;;;;;;23.10;13.80;;;6.60;99.90;;;;;;4997838;28;20848;-64
2022/11/26 06:06:19;;;;;;;20.83;14.23;;;6.60;99.90;;;;;;4997735;28;20474;-65
2022/11/26 06:08:46;;;;;;;17.43;13.40;;;6.60;99.90;;;;;;4997530;28;20450;-64
2022/11/26 06:11:14;;;;;;;21.53;14.23;;;6.60;99.90;;;;;;4997747;28;20844;-65
2022/11/26 06:13:41;;;;;;;24.33;12.63;;;6.60;99.90;;;;;;4997649;28;20457;-65
2022/11/26 06:16:08;;;;;;;15.23;11.50;;;6.60;99.90;;;;;;4997726;28;20450;-65
2022/11/26 06:18:36;;;;;;;17.57;13.03;;;6.60;99.90;;;;;;4997264;28;20460;-64
2022/11/26 06:21:04;;;;;;;19.00;13.63;;;6.50;99.90;;;;;;4997585;28;20474;-65
2022/11/26 06:23:31;;;;;;;18.20;12.33;;;6.50;99.90;;;;;;4997531;28;20516;-64
2022/11/26 06:25:58;;;;;;;24.63;16.80;;;6.40;99.90;;;;;;4997398;28;20473;-64
2022/11/26 06:28:26;;;;;;;24.73;16.63;;;6.40;99.90;;;;;;4997510;28;20458;-64
2022/11/26 06:30:53;;;;;;;24.90;15.27;;;6.40;99.90;;;;;;4997294;28;20474;-64
2022/11/26 06:33:20;;;;;;;20.03;14.17;;;6.30;99.90;;;;;;4997352;28;20453;-64
2022/11/26 06:35:46;;;;;;;23.13;14.90;;;6.40;99.90;;;;;;4997227;28;20517;-64
2022/11/26 06:38:13;;;;;;;16.93;14.10;;;6.40;99.90;;;;;;4997183;28;20454;-65
2022/11/26 06:40:40;;;;;;;18.67;14.17;;;6.40;99.90;;;;;;4997169;28;20474;-64
2022/11/26 06:43:07;;;;;;;18.50;13.73;;;6.40;99.90;;;;;;4997336;28;20457;-64
2022/11/26 06:45:35;;;;;;;15.33;13.60;;;6.30;99.90;;;;;;4996567;28;21010;-64
2022/11/26 06:48:01;;;;;;;17.57;12.37;;;6.30;99.90;;;;;;4997160;28;20524;-64
2022/11/26 06:50:28;;;;;;;13.07;11.70;;;6.20;99.90;;;;;;4997062;28;20458;-64
2022/11/26 06:52:55;;;;;;;13.30;11.53;;;6.20;99.90;;;;;;4997038;28;20505;-64
2022/11/26 06:55:22;;;;;;;15.00;10.70;;;6.20;99.90;;;;;;4997166;28;20449;-64
2022/11/26 06:57:50;;;;;;;16.17;11.63;;;6.20;99.90;;;;;;4996643;28;20442;-64
2022/11/26 07:00:17;;;;;;;14.93;12.10;;;6.10;99.90;;;;;;4996637;28;20545;-65
2022/11/26 07:02:45;;;;;;;16.10;10.17;;;6.10;99.90;;;;;;4996725;28;20442;-64
2022/11/26 07:05:12;;;;;;;12.83;10.60;;;6.10;99.90;;;;;;4996813;28;20477;-64
2022/11/26 07:07:39;;;;;;;15.03;10.67;;;6.10;99.90;;;;;;4997202;28;20457;-64
2022/11/26 07:10:07;;;;;;;11.80;10.60;;;6.10;99.90;;;;;;4996340;28;20951;-64
2022/11/26 07:12:34;;;;;;;12.73;10.40;;;6.10;99.90;;;;;;4996521;28;20532;-64
2022/11/26 07:15:01;;;;;;;15.20;10.13;;;6.10;99.90;;;;;;4996564;28;20856;-64
2022/11/26 07:17:28;;;;;;;11.40;10.17;;;6.20;99.90;;;;;;4996125;28;21006;-64
2022/11/26 07:19:56;;;;;;;14.23;10.13;;;6.20;99.90;;;;;;4997094;28;20843;-64
2022/11/26 07:22:22;;;;;;;15.00;11.23;;;6.20;99.90;;;;;;4996172;28;20481;-64
2022/11/26 07:24:49;;;;;;;11.70;10.23;;;6.20;99.90;;;;;;4996292;28;20494;-64
2022/11/26 07:27:16;;;;;;;14.17;10.30;;;6.30;99.90;;;;;;4996220;28;20868;-65
2022/11/26 07:29:42;;;;;;;16.10;11.40;;;6.30;99.90;;;;;;4996165;28;20457;-65
2022/11/26 07:32:09;;;;;;;16.13;12.33;;;6.30;99.90;;;;;;4996463;28;20477;-64
2022/11/26 07:34:36;;;;;;;17.37;12.77;;;6.30;99.90;;;;;;4996031;28;20933;-64
2022/11/26 07:37:04;;;;;;;16.67;12.27;;;6.40;99.90;;;;;;4996483;28;20457;-65
2022/11/26 07:39:31;;;;;;;14.00;12.03;;;6.50;99.90;;;;;;4995712;28;20815;-65
2022/11/26 07:41:57;;;;;;;14.50;12.63;;;6.60;99.90;;;;;;4996357;28;20485;-65
2022/11/26 07:44:24;;;;;;;13.57;11.93;;;6.70;99.90;;;;;;4996251;28;20818;-64
2022/11/26 07:46:51;;;;;;;13.23;11.57;;;6.70;99.90;;;;;;4995704;28;20988;-65
2022/11/26 07:49:17;;;;;;;13.83;11.87;;;6.80;99.90;;;;;;4996027;28;20458;-65
2022/11/26 07:51:44;;;;;;;17.33;12.00;;;6.90;99.90;;;;;;4995931;28;20837;-65
2022/11/26 07:54:12;;;;;;;16.53;12.27;;;7.00;99.90;;;;;;4995900;28;20464;-65
2022/11/26 07:56:39;;;;;;;19.70;12.30;;;7.00;99.90;;;;;;4995710;28;20461;-65
2022/11/26 07:59:05;;;;;;;13.70;12.30;;;7.10;99.90;;;;;;4995953;28;20524;-65
2022/11/26 08:01:32;;;;;;;21.43;14.33;;;7.20;99.90;;;;;;4995764;28;20543;-65
2022/11/26 08:04:00;;;;;;;16.60;13.57;;;7.10;99.90;;;;;;4996222;28;20488;-65
2022/11/26 08:06:29;;;;;;;18.03;12.60;;;7.20;99.90;;;;;;4996535;28;20484;-65
2022/11/26 08:08:55;;;;;;;19.00;13.73;;;7.20;99.90;;;;;;4997432;28;20460;-65
2022/11/26 08:11:25;;;;;;;17.73;13.60;;;7.30;99.90;;;;;;4997517;28;20470;-65
2022/11/26 08:13:54;;;;;;;17.63;13.10;;;7.30;99.90;;;;;;4998476;28;20454;-65
2022/11/26 08:16:21;;;;;;;19.83;15.23;;;7.30;99.90;;;;;;4997561;28;20527;-65
2022/11/26 08:18:48;;;;;;;16.50;13.57;;;7.40;99.90;;;;;;4996879;28;20468;-65
2022/11/26 08:21:14;;;;;;;16.27;13.70;;;7.40;99.90;;;;;;4995960;28;20479;-65
2022/11/26 08:23:41;;;;;;;15.40;13.50;;;7.40;99.90;;;;;;4997067;28;20446;-66
2022/11/26 08:26:09;;;;;;;18.73;14.47;;;7.50;99.90;;;;;;4995961;28;20478;-65
2022/11/26 08:28:38;;;;;;;16.60;13.70;;;7.50;99.90;;;;;;4995815;28;20454;-65
2022/11/26 08:31:07;;;;;;;18.00;13.03;;;7.60;99.90;;;;;;4995234;28;20902;-65
2022/11/26 08:33:34;;;;;;;15.63;11.80;;;7.60;99.90;;;;;;4995879;28;20457;-65
2022/11/26 08:36:01;;;;;;;15.93;12.90;;;7.70;99.90;;;;;;4995557;28;20449;-65
2022/11/26 08:38:29;;;;;;;17.70;13.60;;;7.80;99.90;;;;;;4995529;28;20565;-66
2022/11/26 08:40:59;;;;;;;16.10;12.73;;;7.80;99.90;;;;;;4995070;28;20481;-65
2022/11/26 08:43:26;;;;;;;19.80;16.50;;;7.90;99.90;;;;;;4995205;28;20442;-66
2022/11/26 08:45:56;;;;;;;16.67;14.80;;;7.90;99.90;;;;;;4995334;28;21015;-66
2022/11/26 08:48:24;;;;;;;16.53;14.70;;;8.00;99.90;;;;;;4995518;28;20458;-65
2022/11/26 08:50:51;;;;;;;18.93;15.60;;;8.00;99.90;;;;;;4994733;28;21031;-65
2022/11/26 08:53:18;;;;;;;15.70;14.17;;;8.10;99.90;;;;;;4995077;28;20457;-66
2022/11/26 08:55:45;;;;;;;18.80;11.93;;;8.60;99.90;;;;;;4995267;28;20456;-66
2022/11/26 08:58:11;;;;;;;12.70;10.27;;;9.10;99.90;;;;;;4995172;28;20460;-66
2022/11/26 09:00:39;;;;;;;12.90;9.80;;;9.40;99.90;;;;;;4994538;28;20482;-66
2022/11/26 09:03:08;;;;;;;18.27;12.17;;;9.70;99.90;;;;;;4994948;28;20454;-66
2022/11/26 09:05:35;;;;;;;16.57;10.07;;;9.90;99.90;;;;;;4994894;28;20481;-66
2022/11/26 09:08:02;;;;;;;15.93;10.77;;;10.00;99.90;;;;;;4994468;28;20494;-65
2022/11/26 09:10:29;;;;;;;13.93;8.80;;;10.20;99.90;;;;;;4993929;28;20460;-65
2022/11/26 09:12:55;;;;;;;9.23;7.50;;;10.40;99.90;;;;;;4994443;28;20789;-66
2022/11/26 09:15:23;;;;;;;10.40;7.80;;;10.40;99.90;;;;;;4995540;28;20464;-66
2022/11/26 09:17:50;;;;;;;12.80;8.50;;;10.40;99.90;;;;;;4994624;28;20493;-66
2022/11/26 09:20:18;;;;;;;12.60;8.30;;;10.40;99.90;;;;;;4994568;28;20453;-66
2022/11/26 09:22:45;;;;;;;15.70;7.90;;;10.40;99.90;;;;;;4995168;28;20810;-66
2022/11/26 09:25:12;;;;;;;12.97;6.97;;;10.40;99.90;;;;;;4994476;28;20480;-66
2022/11/26 09:27:39;;;;;;;16.93;8.07;;;10.50;99.90;;;;;;4994794;28;20571;-66
2022/11/26 09:30:07;;;;;;;9.47;7.40;;;10.60;99.90;;;;;;4994470;28;20454;-66
2022/11/26 09:32:34;;;;;;;12.07;7.47;;;10.80;99.90;;;;;;4994497;28;20521;-66
2022/11/26 09:35:01;;;;;;;8.13;6.33;;;11.10;99.90;;;;;;4994677;28;20465;-66
2022/11/26 09:37:30;;;;;;;10.80;6.30;;;11.80;99.90;;;;;;4994478;28;20504;-66
2022/11/26 09:39:57;;;;;;;8.53;5.83;;;12.70;99.90;;;;;;4993762;28;20949;-66
2022/11/26 09:42:38;;;;;;;5.40;4.80;;;13.60;99.90;;;;;;4993782;28;20532;-66
2022/11/26 09:45:12;;;;;;;11.10;7.30;;;14.50;99.90;;;;;;4994358;28;20492;-66
2022/11/26 09:47:40;;;;;;;12.83;6.20;;;15.10;99.90;;;;;;4993921;28;20968;-66
2022/11/26 09:50:19;;;;;;;9.20;5.80;;;16.00;99.90;;;;;;4994137;28;20867;-66
2022/11/26 09:52:54;;;;;;;12.23;6.57;;;16.80;99.90;;;;;;4994152;28;20442;-66
2022/11/26 09:55:24;;;;;;;10.43;7.83;;;17.00;99.90;;;;;;4995933;28;20446;-66
2022/11/26 09:57:58;;;;;;;12.80;6.80;;;16.00;99.90;;;;;;4994258;28;20813;-66
2022/11/26 10:00:28;;;;;;;11.10;6.70;;;15.40;99.90;;;;;;4993922;28;20499;-66
2022/11/26 10:02:57;;;;;;;11.23;7.10;;;14.60;99.90;;;;;;4994334;28;20574;-66
2022/11/26 10:05:39;;;;;;;12.17;7.67;;;14.10;99.90;;;;;;4994248;28;20461;-66
2022/11/26 10:08:37;;;;;;;18.83;8.20;;;13.50;99.90;;;;;;4994225;28;20434;-66
2022/11/26 10:11:10;;;;;;;12.83;9.10;;;13.10;99.90;;;;;;4994070;28;20484;-65
2022/11/26 10:13:44;;;;;;;15.40;8.63;;;12.50;99.90;;;;;;4994209;28;20441;-66
2022/11/26 10:16:20;;;;;;;11.43;8.53;;;12.00;99.90;;;;;;4993890;28;20438;-66
2022/11/26 10:18:53;;;;;;;12.93;8.90;;;11.80;99.90;;;;;;4993893;28;20496;-66
2022/11/26 10:21:23;;;;;;;12.50;8.43;;;11.80;99.90;;;;;;4997188;28;20473;-66
2022/11/26 10:23:57;;;;;;;13.93;7.80;;;12.20;99.90;;;;;;4997856;28;20441;-66
2022/11/26 10:26:28;;;;;;;8.90;7.00;;;13.20;99.90;;;;;;4998003;28;20499;-66
2022/11/26 10:29:04;;;;;;;9.83;5.63;;;14.30;99.90;;;;;;4997721;28;20442;-66
2022/11/26 10:31:33;;;;;;;8.97;6.77;;;15.30;99.90;;;;;;4997696;28;20555;-66
2022/11/26 10:34:02;;;;;;;12.80;7.23;;;15.80;99.90;;;;;;4997948;28;20446;-64
2022/11/26 10:36:35;;;;;;;10.63;6.50;;;15.90;99.90;;;;;;4997328;28;20453;-64
2022/11/26 10:39:04;;;;;;;11.33;7.77;;;15.70;99.90;;;;;;4997464;28;21029;-64
2022/11/26 10:41:34;;;;;;;13.40;8.43;;;15.30;99.90;;;;;;4997827;28;20478;-64
2022/11/26 10:44:28;;;;;;;10.23;8.17;;;14.70;99.90;;;;;;4997681;28;20465;-64
2022/11/26 10:46:55;;;;;;;16.50;8.73;;;14.20;99.90;;;;;;4997298;28;21030;-64
2022/11/26 10:49:24;;;;;;;13.50;8.90;;;13.60;99.90;;;;;;4997306;28;20441;-64
2022/11/26 10:51:53;;;;;;;10.33;7.73;;;13.30;99.90;;;;;;4996846;28;21050;-64
2022/11/26 10:54:32;;;;;;;15.63;8.60;;;13.10;99.90;;;;;;4997488;28;20477;-64
2022/11/26 10:57:04;;;;;;;15.60;8.80;;;12.80;99.90;;;;;;4997153;28;20846;-64
2022/11/26 10:59:38;;;;;;;18.17;10.10;;;12.50;99.90;;;;;;4997193;28;20438;-64
2022/11/26 11:02:16;;;;;;;13.57;10.10;;;12.10;99.90;;;;;;4996631;28;20576;-64
2022/11/26 11:04:45;;;;;;;15.07;11.17;;;11.80;99.90;;;;;;4996975;28;20500;-64
2022/11/26 11:07:29;;;;;;;16.57;8.53;;;11.60;99.90;;;;;;4997099;28;21023;-63
2022/11/26 11:10:05;;;;;;;10.53;7.13;;;11.40;99.90;;;;;;4997105;28;20529;-63
2022/11/26 11:12:32;;;;;;;11.50;7.20;;;11.30;99.90;;;;;;4996606;28;20487;-64
2022/11/26 11:15:19;;;;;;;8.30;6.93;;;11.20;99.90;;;;;;4996596;28;20454;-63
2022/11/26 11:17:47;;;;;;;11.97;8.03;;;11.20;99.90;;;;;;4996573;28;20940;-64
2022/11/26 11:20:32;;;;;;;13.13;6.73;;;11.20;99.90;;;;;;4996751;28;20488;-63
2022/11/26 11:23:06;;;;;;;11.53;6.87;;;11.10;99.90;;;;;;4996847;28;20489;-63
2022/11/26 11:25:35;;;;;;;10.60;7.03;;;11.10;99.90;;;;;;4996528;28;20512;-63
2022/11/26 11:28:15;;;;;;;11.33;7.10;;;11.10;99.90;;;;;;4997027;28;20571;-62
2022/11/26 11:30:44;;;;;;;8.40;5.43;;;11.10;99.90;;;;;;4996533;28;20476;-64
2022/11/26 11:33:19;;;;;;;11.23;6.70;;;11.20;99.90;;;;;;4995424;28;20840;-63
2022/11/26 11:35:58;;;;;;;9.67;5.00;;;11.30;99.90;;;;;;4996345;28;20804;-63
2022/11/26 11:38:27;;;;;;;12.97;7.10;;;11.40;99.90;;;;;;4996192;28;20500;-63
2022/11/26 11:40:55;;;;;;;14.00;6.77;;;11.40;99.90;;;;;;4996327;28;20478;-63
2022/11/26 11:43:25;;;;;;;13.23;7.10;;;11.40;99.90;;;;;;4996312;28;20445;-63
2022/11/26 11:46:28;;;;;;;11.70;6.70;;;11.40;99.90;;;;;;4996343;28;20489;-63
2022/11/26 11:49:04;;;;;;;11.00;7.37;;;11.40;99.90;;;;;;4994150;28;20552;-63
2022/11/26 11:51:42;;;;;;;14.53;6.47;;;11.40;99.90;;;;;;4995427;28;21043;-63
2022/11/26 11:54:20;;;;;;;8.80;4.40;;;11.60;99.90;;;;;;4995860;28;20441;-63
2022/11/26 11:56:54;;;;;;;7.70;4.43;;;11.90;99.90;;;;;;4995452;28;20477;-63
2022/11/26 11:59:46;;;;;;;7.53;4.40;;;12.10;99.90;;;;;;4995780;28;20817;-63
2022/11/26 12:02:33;;;;;;;9.03;3.80;;;12.10;99.90;;;;;;4995211;28;20496;-64
2022/11/26 12:05:30;;;;;;;7.00;3.80;;;12.10;99.90;;;;;;4995599;28;20454;-63
2022/11/26 12:08:04;;;;;;;14.40;9.57;;;12.10;99.90;;;;;;4995595;28;20528;-64
2022/11/26 12:10:41;;;;;;;13.20;7.90;;;12.10;99.90;;;;;;4995538;28;20465;-63
2022/11/26 12:13:14;;;;;;;17.13;8.53;;;12.10;99.90;;;;;;4995594;28;20449;-64
2022/11/26 12:15:50;;;;;;;15.07;8.57;;;12.20;99.90;;;;;;4995530;28;20446;-63
2022/11/26 12:18:22;;;;;;;15.87;8.80;;;12.20;99.90;;;;;;4996226;28;20778;-64
2022/11/26 12:20:53;;;;;;;11.63;8.80;;;12.10;99.90;;;;;;4995543;28;20606;-64
2022/11/26 12:23:28;;;;;;;15.60;8.27;;;12.20;99.90;;;;;;4995533;28;20976;-64
2022/11/26 12:26:00;;;;;;;13.00;8.40;;;12.40;99.90;;;;;;4995297;28;20442;-63
2022/11/26 12:28:31;;;;;;;12.20;7.63;;;12.50;99.90;;;;;;4995367;28;20462;-63
2022/11/26 12:31:02;;;;;;;12.87;7.47;;;12.50;99.90;;;;;;4995083;28;20477;-64
2022/11/26 12:33:34;;;;;;;13.73;8.73;;;12.50;99.90;;;;;;4995234;28;20438;-64
2022/11/26 12:36:10;;;;;;;16.20;9.60;;;12.30;99.90;;;;;;4994860;28;20492;-64
2022/11/26 12:38:42;;;;;;;13.33;8.70;;;12.10;99.90;;;;;;4995145;28;20492;-64
2022/11/26 12:41:12;;;;;;;14.03;8.90;;;12.00;99.90;;;;;;4995089;28;20528;-64
2022/11/26 12:43:48;;;;;;;19.03;8.60;;;11.90;99.90;;;;;;4994322;28;20461;-64
2022/11/26 12:46:19;;;;;;;17.57;9.60;;;11.80;99.90;;;;;;4994652;28;20921;-64
2022/11/26 12:48:54;;;;;;;18.23;8.97;;;11.70;99.90;;;;;;4994683;28;20462;-63
2022/11/26 12:51:28;;;;;;;15.00;8.30;;;11.60;99.90;;;;;;4995078;28;20566;-63
2022/11/26 12:54:02;;;;;;;17.33;9.67;;;11.50;99.90;;;;;;4994660;28;20865;-63
2022/11/26 12:56:34;;;;;;;21.97;8.60;;;11.40;99.90;;;;;;4994895;28;20442;-63
2022/11/26 12:59:08;;;;;;;19.63;9.80;;;11.40;99.90;;;;;;4994644;28;20442;-64
2022/11/26 13:01:34;;;;;;;20.00;7.93;;;11.30;99.90;;;;;;4994510;28;20539;-64
2022/11/26 13:04:02;;;;;;;12.17;8.20;;;11.30;99.90;;;;;;4995439;28;20558;-64
2022/11/26 13:06:44;;;;;;;15.17;9.17;;;11.30;99.90;;;;;;4994502;28;20454;-63
2022/11/26 13:09:28;;;;;;;15.00;8.20;;;11.20;99.90;;;;;;4994539;28;20446;-63
2022/11/26 13:12:18;;;;;;;16.20;8.43;;;11.30;99.90;;;;;;4994538;28;20551;-64
2022/11/26 13:14:52;;;;;;;15.17;9.83;;;11.30;99.90;;;;;;4994812;28;20438;-64
2022/11/26 13:17:28;;;;;;;14.77;8.00;;;11.20;99.90;;;;;;4994499;28;20430;-64
2022/11/26 13:20:04;;;;;;;13.17;7.67;;;11.20;99.90;;;;;;4994117;28;20968;-64
2022/11/26 13:22:54;;;;;;;9.97;7.80;;;11.10;99.90;;;;;;4994080;28;20846;-64
2022/11/26 13:26:01;;;;;;;11.60;8.30;;;11.20;99.90;;;;;;4994531;28;20843;-64
2022/11/26 13:28:44;;;;;;;14.77;7.40;;;11.20;99.90;;;;;;4994463;28;20552;-64
2022/11/26 13:31:26;;;;;;;11.60;7.50;;;11.20;99.90;;;;;;4994667;28;20477;-64
2022/11/26 13:34:11;;;;;;;13.10;7.93;;;11.20;99.90;;;;;;4994373;28;20446;-64
2022/11/26 13:37:13;;;;;;;14.83;8.10;;;11.20;99.90;;;;;;4994317;28;20445;-64
2022/11/26 13:40:02;;;;;;;15.90;7.83;;;11.20;99.90;;;;;;4994279;28;20437;-64
2022/11/26 13:42:58;;;;;;;14.87;8.20;;;11.20;99.90;;;;;;4995172;28;20560;-64
2022/11/26 13:45:42;;;;;;;13.67;7.50;;;11.10;99.90;;;;;;4994114;28;20438;-64
2022/11/26 13:48:16;;;;;;;15.50;8.20;;;11.10;99.90;;;;;;4994546;28;20469;-64
2022/11/26 13:50:48;;;;;;;11.57;7.60;;;11.00;99.90;;;;;;4994056;28;20496;-64
2022/11/26 13:53:20;;;;;;;11.93;7.03;;;10.80;99.90;;;;;;4994040;28;20437;-64
2022/11/26 13:55:51;;;;;;;18.97;7.80;;;10.80;99.90;;;;;;4996385;28;20438;-63
2022/11/26 13:58:23;;;;;;;9.23;7.10;;;10.70;99.90;;;;;;4997936;28;20980;-63
2022/11/26 14:00:49;;;;;;;15.23;7.00;;;10.60;99.90;;;;;;4997587;28;20492;-63
2022/11/26 14:03:45;;;;;;;13.47;6.80;;;10.60;99.90;;;;;;4997779;28;20453;-63
2022/11/26 14:06:12;;;;;;;8.60;5.60;;;10.60;99.90;;;;;;4997708;28;20476;-63
2022/11/26 14:08:42;;;;;;;11.57;6.20;;;10.60;99.90;;;;;;4997216;28;21015;-63
2022/11/26 14:11:09;;;;;;;11.47;7.13;;;10.50;99.90;;;;;;4997498;28;20484;-63
2022/11/26 14:13:36;;;;;;;10.47;5.70;;;10.50;99.90;;;;;;4998049;28;20462;-63
2022/11/26 14:16:05;;;;;;;12.43;6.53;;;10.60;99.90;;;;;;4997213;28;20939;-63
2022/11/26 14:18:59;;;;;;;10.03;5.97;;;10.60;99.90;;;;;;4997424;28;20438;-63
2022/11/26 14:21:26;;;;;;;9.17;5.20;;;10.70;99.90;;;;;;4997422;28;20568;-63
2022/11/26 14:23:55;;;;;;;8.03;5.43;;;10.70;99.90;;;;;;4997390;28;20461;-64
2022/11/26 14:26:27;;;;;;;9.07;5.50;;;10.70;99.90;;;;;;4997688;28;20457;-63
2022/11/26 14:29:00;;;;;;;6.87;5.07;;;10.80;99.90;;;;;;5000250;28;20465;-63
2022/11/26 14:31:29;;;;;;;12.20;5.87;;;10.80;99.90;;;;;;5007473;28;20536;-63
2022/11/26 14:34:03;;;;;;;13.13;6.03;;;10.90;99.90;;;;;;5006457;28;20481;-63
2022/11/26 14:36:31;;;;;;;9.80;5.80;;;10.90;99.90;;;;;;5006439;28;20445;-63
2022/11/26 14:39:05;;;;;;;8.17;5.30;;;11.00;99.90;;;;;;5003942;28;20454;-63
2022/11/26 14:41:50;;;;;;;16.10;6.37;;;11.10;99.90;;;;;;4997664;28;21040;-63
2022/11/26 14:44:18;;;;;;;14.50;6.27;;;11.10;99.90;;;;;;4997606;28;20438;-63
2022/11/26 14:46:48;;;;;;;13.73;7.90;;;11.00;99.90;;;;;;4997847;28;20453;-63
2022/11/26 14:49:34;;;;;;;17.93;8.07;;;10.90;99.90;;;;;;4997312;28;20532;-63
2022/11/26 14:52:02;;;;;;;14.30;8.40;;;10.70;99.90;;;;;;4996392;28;20972;-63
2022/11/26 14:54:31;;;;;;;17.47;8.87;;;10.50;99.90;;;;;;4996970;28;20516;-63
2022/11/26 14:57:04;;;;;;;18.60;7.93;;;10.40;99.90;;;;;;4996894;28;20864;-63
2022/11/26 14:59:31;;;;;;;14.70;7.97;;;10.20;99.90;;;;;;4996763;28;20450;-63
2022/11/26 15:01:58;;;;;;;12.60;8.33;;;10.10;99.90;;;;;;4996170;28;20485;-63
2022/11/26 15:04:28;;;;;;;16.70;9.40;;;10.10;99.90;;;;;;4996412;28;20969;-63
2022/11/26 15:06:55;;;;;;;16.17;9.40;;;10.00;99.90;;;;;;4995276;28;20790;-63
2022/11/26 15:09:24;;;;;;;14.60;9.20;;;9.90;99.90;;;;;;4996519;28;20927;-63
2022/11/26 15:12:00;;;;;;;15.10;10.13;;;9.90;99.90;;;;;;4996388;28;20477;-63
2022/11/26 15:14:31;;;;;;;19.70;9.87;;;9.80;99.90;;;;;;4996128;28;20902;-63
2022/11/26 15:17:00;;;;;;;17.60;10.53;;;9.60;99.90;;;;;;4996103;28;20963;-63
2022/11/26 15:19:31;;;;;;;19.20;11.40;;;9.50;99.90;;;;;;4996309;28;20875;-63
2022/11/26 15:21:58;;;;;;;16.97;12.30;;;9.50;99.90;;;;;;4996110;28;20474;-63
2022/11/26 15:24:26;;;;;;;18.93;12.77;;;9.30;99.90;;;;;;4996165;28;20516;-63
2022/11/26 15:26:53;;;;;;;21.73;13.60;;;9.20;99.90;;;;;;4996152;28;20457;-63
2022/11/26 15:29:32;;;;;;;19.33;13.43;;;9.10;99.90;;;;;;4995738;28;20488;-63
2022/11/26 15:31:59;;;;;;;18.30;12.80;;;9.00;99.90;;;;;;4996049;28;20884;-63
2022/11/26 15:34:31;;;;;;;24.33;13.33;;;8.90;99.90;;;;;;4996037;28;20442;-63
2022/11/26 15:36:58;;;;;;;18.47;13.37;;;8.90;99.90;;;;;;4996306;28;20442;-63
2022/11/26 15:39:27;;;;;;;20.10;13.70;;;8.90;99.90;;;;;;4996214;28;20443;-63
2022/11/26 15:41:57;;;;;;;21.80;14.13;;;8.80;99.90;;;;;;4995788;28;20482;-63
2022/11/26 15:44:26;;;;;;;23.50;14.17;;;8.70;99.90;;;;;;4995836;28;20446;-63
2022/11/26 15:46:55;;;;;;;21.13;13.67;;;8.70;99.90;;;;;;4995634;28;20461;-63
2022/11/26 15:49:26;;;;;;;23.20;14.77;;;8.60;99.90;;;;;;4995717;28;20474;-63
2022/11/26 15:51:56;;;;;;;19.47;14.23;;;8.60;99.90;;;;;;4995366;28;21056;-63
2022/11/26 15:54:25;;;;;;;20.70;15.00;;;8.60;99.90;;;;;;4995680;28;20434;-63
2022/11/26 15:56:55;;;;;;;20.40;14.37;;;8.50;99.90;;;;;;4995777;28;20530;-65
2022/11/26 15:59:25;;;;;;;17.83;14.73;;;8.40;99.90;;;;;;4995564;28;20461;-65
2022/11/26 16:01:51;;;;;;;20.77;15.20;;;8.30;99.90;;;;;;4995561;28;20540;-65
2022/11/26 16:04:48;;;;;;;22.20;14.00;;;8.30;99.90;;;;;;4995485;28;20457;-65
2022/11/26 16:07:18;;;;;;;24.63;15.00;;;8.20;99.90;;;;;;4940071;28;20480;-65
2022/11/26 16:09:45;;;;;;;22.70;15.50;;;8.20;99.90;;;;;;4995239;28;20477;-65
2022/11/26 16:12:27;;;;;;;22.53;15.70;;;8.10;99.90;;;;;;4995415;28;20474;-65
2022/11/26 16:15:06;;;;;;;22.57;16.70;;;8.00;99.90;;;;;;4994929;28;20980;-65
2022/11/26 16:17:33;;;;;;;28.57;18.83;;;8.00;99.90;;;;;;4994878;28;20526;-64
2022/11/26 16:20:00;;;;;;;28.43;18.77;;;8.00;99.90;;;;;;4995202;28;20461;-65
2022/11/26 16:22:31;;;;;;;29.03;18.53;;;7.90;99.90;;;;;;4995215;28;20480;-65
2022/11/26 16:25:03;;;;;;;24.80;18.17;;;7.90;99.90;;;;;;4995272;28;20445;-65
2022/11/26 16:27:31;;;;;;;24.13;17.20;;;7.90;99.90;;;;;;4995045;28;20457;-65
2022/11/26 16:29:59;;;;;;;25.63;17.80;;;7.80;99.90;;;;;;4995019;28;20458;-65
2022/11/26 16:32:26;;;;;;;32.70;18.30;;;7.80;99.90;;;;;;4994878;28;20485;-65
2022/11/26 16:34:52;;;;;;;25.60;17.80;;;7.70;99.90;;;;;;4994549;28;20798;-64
2022/11/26 16:37:21;;;;;;;30.13;19.30;;;7.80;99.90;;;;;;4994957;28;20457;-64
2022/11/26 16:39:51;;;;;;;24.50;18.43;;;7.80;99.90;;;;;;4995031;28;20548;-64
2022/11/26 16:42:20;;;;;;;24.30;18.73;;;7.70;99.90;;;;;;4994895;28;20473;-64
2022/11/26 16:44:48;;;;;;;25.93;19.33;;;7.70;99.90;;;;;;4994957;28;20458;-65
2022/11/26 16:47:19;;;;;;;30.43;21.60;;;7.60;99.90;;;;;;4994849;28;20561;-64
2022/11/26 16:49:45;;;;;;;33.10;20.50;;;7.60;99.90;;;;;;4994805;28;20532;-64
2022/11/26 16:52:14;;;;;;;28.67;21.97;;;7.50;99.90;;;;;;4994763;28;20478;-64
2022/11/26 16:54:41;;;;;;;28.37;19.07;;;7.50;99.90;;;;;;4994292;28;20957;-65
2022/11/26 16:57:14;;;;;;;30.10;22.67;;;7.50;99.90;;;;;;4994666;28;20936;-64
2022/11/26 16:59:41;;;;;;;30.40;24.03;;;7.50;99.90;;;;;;4994324;28;20488;-65
2022/11/26 17:02:15;;;;;;;34.93;26.50;;;7.40;99.90;;;;;;4994028;28;20481;-64
2022/11/26 17:04:42;;;;;;;51.07;40.47;;;7.40;99.90;;;;;;4995670;28;20474;-65
2022/11/26 17:07:12;;;;;;;61.00;45.57;;;7.40;99.90;;;;;;4994470;28;20508;-64
2022/11/26 17:09:38;;;;;;;75.23;53.60;;;7.40;99.90;;;;;;4993960;28;20992;-64
2022/11/26 17:12:09;;;;;;;91.03;57.87;;;7.40;99.90;;;;;;4994350;28;20477;-64
2022/11/26 17:14:37;;;;;;;68.87;53.47;;;7.30;99.90;;;;;;4994134;28;20838;-65
2022/11/26 17:17:04;;;;;;;69.90;50.90;;;7.30;99.90;;;;;;4994430;28;20464;-64
2022/11/26 17:19:30;;;;;;;49.67;37.27;;;7.30;99.90;;;;;;4994234;28;20454;-64
2022/11/26 17:21:57;;;;;;;57.93;43.73;;;7.30;99.90;;;;;;4994162;28;20548;-65
2022/11/26 17:24:24;;;;;;;56.00;40.57;;;7.30;99.90;;;;;;4994326;28;20481;-65
2022/11/26 17:26:51;;;;;;;42.70;35.27;;;7.30;99.90;;;;;;4994198;28;20457;-65
2022/11/26 17:29:18;;;;;;;43.63;36.90;;;7.30;99.90;;;;;;4993451;28;20474;-64
2022/11/26 17:31:46;;;;;;;40.90;30.97;;;7.20;99.90;;;;;;4993593;28;20983;-64
2022/11/26 17:34:12;;;;;;;43.23;31.80;;;7.20;99.90;;;;;;4994068;28;20460;-65
2022/11/26 17:36:39;;;;;;;38.90;29.23;;;7.20;99.90;;;;;;4994163;28;20508;-64
2022/11/26 17:39:06;;;;;;;44.10;30.33;;;7.10;99.90;;;;;;4993939;28;20439;-65
2022/11/26 17:41:32;;;;;;;39.33;28.67;;;7.10;99.90;;;;;;4993878;28;20478;-64
2022/11/26 17:43:59;;;;;;;35.83;27.30;;;7.10;99.90;;;;;;4993432;28;20941;-64
2022/11/26 17:46:26;;;;;;;36.23;27.53;;;7.10;99.90;;;;;;4993792;28;20480;-64
2022/11/26 17:48:54;;;;;;;34.40;27.30;;;7.00;99.90;;;;;;4994472;28;20484;-65
2022/11/26 17:51:21;;;;;;;34.77;27.30;;;7.00;99.90;;;;;;4994000;28;20478;-65
2022/11/26 17:53:47;;;;;;;35.50;25.83;;;7.10;99.90;;;;;;4994113;28;20446;-65
2022/11/26 17:56:20;;;;;;;32.03;26.30;;;7.00;99.90;;;;;;4994167;28;20458;-65
2022/11/26 17:58:47;;;;;;;35.53;25.90;;;7.00;99.90;;;;;;4994157;28;20484;-65